createdAt,value
2019-04-11T00:00:59.653Z,3.57
2019-04-11T00:03:29.390Z,3.93
2019-04-11T00:05:59.786Z,3.30
2019-04-11T00:08:30.193Z,3.65
2019-04-11T00:11:01.547Z,3.50
2019-04-11T00:13:35.978Z,3.40
2019-04-11T00:16:04.673Z,3.47
2019-04-11T00:18:35.216Z,3.70
2019-04-11T00:21:06.656Z,3.53
2019-04-11T00:23:36.563Z,3.65
2019-04-11T00:26:06.911Z,3.60
2019-04-11T00:28:37.506Z,3.73
2019-04-11T00:31:08.466Z,3.73
2019-04-11T00:33:38.793Z,4.33
2019-04-11T00:36:10.300Z,3.57
2019-04-11T00:38:40.736Z,4.33
2019-04-11T00:41:10.451Z,3.43
2019-04-11T00:43:43.553Z,4.07
2019-04-11T00:46:12.716Z,3.80
2019-04-11T00:48:42.450Z,3.47
2019-04-11T00:51:13.879Z,3.70
2019-04-11T00:53:44.508Z,3.40
2019-04-11T00:56:14.352Z,3.00
2019-04-11T00:58:45.689Z,2.83
2019-04-11T01:01:15.710Z,3.70
2019-04-11T01:03:46.128Z,3.13
2019-04-11T01:06:18.221Z,3.03
2019-04-11T01:08:48.681Z,3.10
2019-04-11T01:11:19.527Z,3.87
2019-04-11T01:13:53.503Z,3.40
2019-04-11T01:16:41.001Z,3.27
2019-04-11T01:19:11.375Z,3.00
2019-04-11T01:21:41.122Z,3.87
2019-04-11T01:24:11.420Z,3.73
2019-04-11T01:26:41.733Z,2.90
2019-04-11T01:29:13.334Z,2.97
2019-04-11T01:31:44.508Z,3.90
2019-04-11T01:34:14.220Z,3.07
2019-04-11T01:36:45.090Z,3.33
2019-04-11T01:39:27.961Z,3.30
2019-04-11T01:41:58.677Z,2.77
2019-04-11T01:44:30.386Z,2.33
2019-04-11T01:47:00.110Z,2.73
2019-04-11T01:49:30.434Z,2.58
2019-04-11T01:54:56.429Z,2.30
2019-04-11T01:57:26.195Z,2.53
2019-04-11T01:59:56.571Z,2.07
2019-04-11T02:02:44.889Z,2.47
2019-04-11T02:05:23.274Z,2.40
2019-04-11T02:07:53.735Z,2.77
2019-04-11T02:10:24.479Z,2.87
2019-04-11T02:12:55.278Z,2.50
2019-04-11T02:15:26.231Z,2.67
2019-04-11T02:17:57.265Z,3.23
2019-04-11T02:20:27.222Z,2.83
2019-04-11T02:23:17.096Z,2.37
2019-04-11T02:25:58.774Z,2.93
2019-04-11T02:28:29.198Z,2.80
2019-04-11T02:31:00.115Z,2.53
2019-04-11T02:33:30.656Z,2.85
2019-04-11T02:36:02.804Z,3.10
2019-04-11T02:38:34.702Z,2.67
2019-04-11T02:41:07.509Z,2.90
2019-04-11T02:43:40.252Z,3.00
2019-04-11T02:46:17.417Z,2.70
2019-04-11T02:48:40.727Z,3.50
2019-04-11T02:51:12.396Z,3.17
2019-04-11T02:53:44.985Z,3.10
2019-04-11T02:56:15.081Z,2.80
2019-04-11T02:58:46.398Z,3.03
2019-04-11T03:01:17.900Z,3.00
2019-04-11T03:03:49.804Z,3.17
2019-04-11T03:06:21.532Z,2.53
2019-04-11T03:08:53.023Z,2.80
2019-04-11T03:11:24.178Z,2.63
2019-04-11T03:13:55.004Z,3.33
2019-04-11T03:16:35.255Z,3.53
2019-04-11T03:19:12.963Z,3.73
2019-04-11T03:21:30.861Z,3.60
2019-04-11T03:24:00.869Z,3.93
2019-04-11T03:26:33.563Z,3.62
2019-04-11T03:29:06.304Z,3.53
2019-04-11T03:32:33.027Z,3.33
2019-04-11T03:39:32.834Z,4.20
2019-04-11T03:41:59.757Z,3.23
2019-04-11T03:44:24.330Z,4.40
2019-04-11T03:47:06.907Z,3.63
2019-04-11T03:49:31.630Z,4.13
2019-04-11T03:51:54.863Z,3.93
2019-04-11T03:54:25.835Z,4.35
2019-04-11T03:56:57.283Z,4.30
2019-04-11T03:59:27.097Z,3.87
2019-04-11T04:01:59.083Z,5.50
2019-04-11T04:04:29.620Z,4.53
2019-04-11T04:07:00.075Z,4.97
2019-04-11T04:09:30.833Z,4.97
2019-04-11T04:12:00.700Z,5.00
2019-04-11T04:14:51.436Z,5.03
2019-04-11T04:17:39.168Z,5.67
2019-04-11T04:20:32.943Z,4.90
2019-04-11T04:23:14.130Z,5.87
2019-04-11T04:25:47.120Z,5.57
2019-04-11T04:28:16.206Z,5.30
2019-04-11T04:30:47.019Z,5.43
2019-04-11T04:33:19.344Z,5.83
2019-04-11T04:35:50.130Z,6.37
2019-04-11T04:38:23.571Z,5.30
2019-04-11T04:41:09.988Z,6.03
2019-04-11T04:43:29.661Z,5.50
2019-04-11T04:46:17.332Z,5.87
2019-04-11T04:48:33.767Z,6.33
2019-04-11T04:51:07.825Z,7.07
2019-04-11T04:53:35.578Z,6.30
2019-04-11T04:56:06.752Z,7.23
2019-04-11T04:58:37.824Z,6.47
2019-04-11T05:01:08.004Z,7.33
2019-04-11T05:03:40.282Z,7.10
2019-04-11T05:06:11.848Z,7.40
2019-04-11T05:08:43.090Z,6.97
2019-04-11T05:11:14.041Z,7.75
2019-04-11T05:13:48.171Z,8.13
2019-04-11T05:16:17.954Z,7.67
2019-04-11T05:18:48.623Z,8.53
2019-04-11T05:21:19.139Z,8.30
2019-04-11T05:23:50.058Z,8.50
2019-04-11T05:26:21.561Z,8.77
2019-04-11T05:28:52.974Z,8.90
2019-04-11T05:31:24.707Z,8.67
2019-04-11T05:33:56.069Z,9.00
2019-04-11T05:36:26.624Z,9.47
2019-04-11T05:38:58.166Z,9.37
2019-04-11T05:41:29.301Z,9.67
2019-04-11T05:44:04.271Z,10.47
2019-04-11T05:46:35.237Z,9.83
2019-04-11T05:49:22.799Z,11.03
2019-04-11T05:52:02.130Z,10.90
2019-04-11T05:54:41.017Z,10.27
2019-04-11T05:57:09.077Z,10.23
2019-04-11T05:59:41.197Z,9.30
2019-04-11T06:02:19.112Z,7.83
2019-04-11T06:04:56.082Z,6.73
2019-04-11T06:07:47.783Z,6.80
2019-04-11T06:10:21.945Z,6.20
2019-04-11T06:13:13.850Z,6.20
2019-04-11T06:15:47.192Z,6.50
2019-04-11T06:18:33.190Z,6.10
2019-04-11T06:21:05.728Z,6.30
2019-04-11T06:24:07.557Z,6.67
2019-04-11T06:26:56.880Z,6.27
2019-04-11T06:29:38.963Z,5.93
2019-04-11T06:32:31.938Z,6.67
2019-04-11T06:35:06.640Z,6.43
2019-04-11T06:37:58.303Z,5.77
2019-04-11T06:40:36.715Z,6.95
2019-04-11T06:43:28.093Z,6.13
2019-04-11T06:46:22.455Z,6.47
2019-04-11T06:49:14.436Z,5.80
2019-04-11T06:51:48.609Z,5.73
2019-04-11T06:54:26.427Z,6.47
2019-04-11T06:56:57.309Z,6.10
2019-04-11T06:59:34.800Z,6.87
2019-04-11T07:02:17.008Z,5.43
2019-04-11T07:04:50.155Z,6.47
2019-04-11T07:07:22.148Z,6.15
2019-04-11T07:09:55.581Z,6.03
2019-04-11T07:12:55.588Z,5.75
2019-04-11T07:15:31.927Z,6.25
2019-04-11T07:18:20.485Z,5.70
2019-04-11T07:20:56.312Z,5.60
2019-04-11T07:23:44.667Z,6.13
2019-04-11T07:26:27.413Z,5.67
2019-04-11T07:29:17.349Z,6.33
2019-04-11T07:32:06.949Z,6.23
2019-04-11T07:35:05.306Z,6.50
2019-04-11T07:38:01.096Z,6.78
2019-04-11T07:40:39.413Z,6.47
2019-04-11T07:43:29.218Z,7.10
2019-04-11T07:46:25.142Z,6.40
2019-04-11T07:49:08.175Z,6.50
2019-04-11T07:51:45.053Z,6.77
2019-04-11T07:54:20.381Z,5.23
2019-04-11T07:57:01.597Z,6.40
2019-04-11T07:59:57.863Z,6.55
2019-04-11T08:02:45.903Z,5.53
2019-04-11T08:05:34.561Z,5.63
2019-04-11T08:08:30.276Z,4.63
2019-04-11T08:11:23.438Z,5.80
2019-04-11T08:14:12.780Z,5.77
2019-04-11T08:17:03.773Z,5.40
2019-04-11T08:19:53.167Z,4.78
2019-04-11T08:22:39.095Z,5.33
2019-04-11T08:25:21.557Z,5.23
2019-04-11T08:28:04.274Z,5.03
2019-04-11T08:31:05.637Z,5.10
2019-04-11T08:33:36.351Z,5.43
2019-04-11T08:36:24.305Z,5.13
2019-04-11T08:38:54.731Z,4.80
2019-04-11T08:41:59.496Z,5.03
2019-04-11T08:44:36.073Z,4.67
2019-04-11T08:47:09.963Z,4.80
2019-04-11T08:49:46.016Z,4.97
2019-04-11T08:52:40.204Z,4.50
2019-04-11T08:55:23.076Z,4.73
2019-04-11T08:57:58.298Z,6.13
2019-04-11T09:00:46.382Z,5.03
2019-04-11T09:03:39.871Z,5.17
2019-04-11T09:06:18.819Z,4.67
2019-04-11T09:09:16.851Z,4.67
2019-04-11T09:11:49.070Z,4.87
2019-04-11T09:14:38.111Z,4.90
2019-04-11T09:17:14.384Z,5.00
2019-04-11T09:20:03.772Z,5.40
2019-04-11T09:22:39.370Z,5.23
2019-04-11T09:25:28.973Z,5.00
2019-04-11T09:28:19.665Z,5.10
2019-04-11T09:31:21.237Z,5.30
2019-04-11T09:34:17.528Z,4.77
2019-04-11T09:37:17.663Z,5.10
2019-04-11T09:39:57.471Z,5.00
2019-04-11T09:42:44.991Z,5.50
2019-04-11T09:45:35.186Z,5.50
2019-04-11T09:48:36.519Z,4.93
2019-04-11T09:51:29.015Z,5.77
2019-04-11T09:54:11.967Z,5.33
2019-04-11T09:57:13.370Z,5.20
2019-04-11T10:00:05.956Z,4.97
2019-04-11T10:03:10.803Z,4.53
2019-04-11T10:06:09.393Z,5.03
2019-04-11T10:08:53.251Z,5.10
2019-04-11T10:11:57.116Z,4.63
2019-04-11T10:14:29.488Z,4.80
2019-04-11T10:17:16.973Z,5.27
2019-04-11T10:19:54.159Z,5.23
2019-04-11T10:22:46.292Z,5.15
2019-04-11T10:25:51.640Z,5.40
2019-04-11T10:28:46.121Z,5.00
2019-04-11T10:31:18.235Z,4.80
2019-04-11T10:34:09.735Z,4.97
2019-04-11T10:37:01.397Z,5.77
2019-04-11T10:39:53.759Z,5.30
2019-04-11T10:42:24.427Z,5.73
2019-04-11T10:45:14.212Z,5.30
2019-04-11T10:47:44.972Z,4.80
2019-04-11T10:50:34.039Z,5.13
2019-04-11T10:53:04.952Z,4.97
2019-04-11T10:56:08.947Z,5.53
2019-04-11T10:58:55.351Z,5.57
2019-04-11T11:01:44.299Z,5.67
2019-04-11T11:04:16.382Z,5.63
2019-04-11T11:06:48.378Z,5.73
2019-04-11T11:09:46.752Z,4.83
2019-04-11T11:12:45.468Z,5.57
2019-04-11T11:15:27.547Z,5.03
2019-04-11T11:18:41.201Z,4.93
2019-04-11T11:20:54.348Z,4.93
2019-04-11T11:23:49.296Z,5.43
2019-04-11T11:26:24.205Z,5.40
2019-04-11T11:29:20.526Z,5.00
2019-04-11T11:32:09.492Z,5.00
2019-04-11T11:35:01.319Z,5.03
2019-04-11T11:37:45.142Z,4.80
2019-04-11T11:40:44.242Z,4.97
2019-04-11T11:43:21.213Z,5.23
2019-04-11T11:46:10.475Z,5.10
2019-04-11T11:48:49.594Z,5.30
2019-04-11T11:51:58.066Z,4.40
2019-04-11T11:54:29.636Z,5.40
2019-04-11T11:57:02.681Z,5.23
2019-04-11T11:59:42.875Z,5.20
2019-04-11T12:02:20.863Z,5.10
2019-04-11T12:05:26.093Z,5.23
2019-04-11T12:08:24.514Z,5.00
2019-04-11T12:10:59.728Z,4.83
2019-04-11T12:13:47.530Z,5.10
2019-04-11T12:16:45.196Z,5.17
2019-04-11T12:19:22.206Z,5.47
2019-04-11T12:21:53.744Z,5.70
2019-04-11T12:24:32.232Z,5.07
2019-04-11T12:27:35.037Z,5.87
2019-04-11T12:30:33.835Z,4.77
2019-04-11T12:33:25.772Z,5.50
2019-04-11T12:36:26.450Z,4.80
2019-04-11T12:39:13.458Z,5.17
2019-04-11T12:42:14.272Z,5.13
2019-04-11T12:45:02.960Z,5.10
2019-04-11T12:47:42.284Z,5.17
2019-04-11T12:50:31.107Z,4.97
2019-04-11T12:53:15.292Z,4.87
2019-04-11T12:56:04.539Z,4.67
2019-04-11T12:58:39.337Z,4.62
2019-04-11T13:01:31.865Z,5.70
2019-04-11T13:04:20.684Z,5.30
2019-04-11T13:07:09.108Z,4.93
2019-04-11T13:10:08.983Z,5.83
2019-04-11T13:12:59.611Z,5.10
2019-04-11T13:15:41.119Z,4.90
2019-04-11T13:18:36.345Z,4.80
2019-04-11T13:21:25.491Z,5.30
2019-04-11T13:24:14.780Z,5.00
2019-04-11T13:27:22.146Z,5.30
2019-04-11T13:30:14.138Z,5.40
2019-04-11T13:33:01.516Z,6.30
2019-04-11T13:36:05.879Z,5.42
2019-04-11T13:38:40.885Z,5.47
2019-04-11T13:41:28.770Z,5.60
2019-04-11T13:44:23.305Z,5.10
2019-04-11T13:47:10.872Z,5.77
2019-04-11T13:49:43.575Z,4.93
2019-04-11T13:52:32.231Z,5.47
2019-04-11T13:55:21.412Z,5.73
2019-04-11T13:58:10.707Z,5.27
2019-04-11T14:00:45.272Z,5.90
2019-04-11T14:03:41.306Z,6.30
2019-04-11T14:06:42.960Z,6.23
2019-04-11T14:09:38.415Z,5.40
2019-04-11T14:12:11.943Z,5.47
2019-04-11T14:15:01.252Z,5.87
2019-04-11T14:17:49.150Z,5.70
2019-04-11T14:20:42.634Z,5.07
2019-04-11T14:23:43.286Z,5.10
2019-04-11T14:26:31.280Z,5.77
2019-04-11T14:29:30.778Z,6.07
2019-04-11T14:32:23.202Z,5.63
2019-04-11T14:35:13.236Z,6.60
2019-04-11T14:37:46.294Z,6.30
2019-04-11T14:40:27.096Z,6.87
2019-04-11T14:43:16.118Z,6.43
2019-04-11T14:46:06.921Z,6.47
2019-04-11T14:48:49.028Z,6.43
2019-04-11T14:51:36.575Z,6.40
2019-04-11T14:54:17.251Z,6.37
2019-04-11T14:56:52.448Z,6.63
2019-04-11T14:59:28.959Z,6.77
2019-04-11T15:02:17.648Z,6.70
2019-04-11T15:05:06.181Z,6.43
2019-04-11T15:07:37.489Z,7.17
2019-04-11T15:10:26.293Z,6.07
2019-04-11T15:12:56.703Z,5.97
2019-04-11T15:15:36.189Z,6.30
2019-04-11T15:18:06.628Z,6.50
2019-04-11T15:20:58.179Z,6.40
2019-04-11T15:23:30.459Z,6.70
2019-04-11T15:26:22.176Z,6.50
2019-04-11T15:29:04.556Z,6.53
2019-04-11T15:31:59.515Z,6.50
2019-04-11T15:34:53.213Z,6.13
2019-04-11T15:37:45.472Z,6.30
2019-04-11T15:40:35.012Z,7.07
2019-04-11T15:43:33.720Z,7.37
2019-04-11T15:46:06.863Z,6.20
2019-04-11T15:48:56.159Z,6.90
2019-04-11T15:51:37.075Z,6.80
2019-04-11T15:54:25.990Z,6.80
2019-04-11T15:57:02.416Z,6.63
2019-04-11T15:59:57.780Z,6.57
2019-04-11T16:02:53.175Z,6.30
2019-04-11T16:05:41.188Z,6.13
2019-04-11T16:08:16.540Z,5.90
2019-04-11T16:11:12.159Z,6.43
2019-04-11T16:13:50.603Z,6.80
2019-04-11T16:16:58.619Z,6.70
2019-04-11T16:19:47.879Z,6.57
2019-04-11T16:22:35.020Z,6.27
2019-04-11T16:25:09.681Z,7.17
2019-04-11T16:28:08.126Z,6.03
2019-04-11T16:30:40.936Z,6.73
2019-04-11T16:33:46.186Z,6.23
2019-04-11T16:36:32.631Z,7.20
2019-04-11T16:39:20.852Z,7.03
2019-04-11T16:42:08.483Z,6.37
2019-04-11T16:44:57.411Z,6.77
2019-04-11T16:47:53.773Z,7.05
2019-04-11T16:50:27.140Z,6.80
2019-04-11T16:52:57.640Z,7.37
2019-04-11T16:55:28.354Z,6.80
2019-04-11T16:57:58.235Z,7.70
2019-04-11T17:00:28.570Z,7.83
2019-04-11T17:02:58.469Z,7.73
2019-04-11T17:05:28.207Z,6.60
2019-04-11T17:08:09.210Z,7.50
2019-04-11T17:10:57.471Z,6.63
2019-04-11T17:13:28.335Z,6.60
2019-04-11T17:16:01.457Z,7.33
2019-04-11T17:18:34.008Z,6.33
2019-04-11T17:21:02.681Z,7.00
2019-04-11T17:23:32.606Z,6.13
2019-04-11T17:26:03.010Z,6.67
2019-04-11T17:28:32.968Z,6.87
2019-04-11T17:31:03.688Z,6.73
2019-04-11T17:33:33.439Z,6.97
2019-04-11T17:36:03.911Z,6.47
2019-04-11T17:38:36.905Z,6.70
2019-04-11T17:41:10.972Z,6.60
2019-04-11T17:43:38.209Z,6.60
2019-04-11T17:46:08.633Z,6.60
2019-04-11T17:48:39.187Z,6.23
2019-04-11T17:51:09.750Z,5.65
2019-04-11T17:53:40.198Z,6.63
2019-04-11T17:56:09.917Z,6.37
2019-04-11T17:58:39.584Z,6.60
2019-04-11T18:01:09.930Z,7.27
2019-04-11T18:03:41.788Z,6.10
2019-04-11T18:06:11.064Z,6.63
2019-04-11T18:08:40.855Z,6.43
2019-04-11T18:11:10.579Z,6.47
2019-04-11T18:13:40.255Z,7.20
2019-04-11T18:16:11.408Z,7.00
2019-04-11T18:18:41.319Z,6.50
2019-04-11T18:21:11.044Z,6.40
2019-04-11T18:23:40.699Z,6.37
2019-04-11T18:26:10.574Z,6.63
2019-04-11T18:28:40.292Z,6.83
2019-04-11T18:31:09.952Z,7.00
2019-04-11T18:33:40.403Z,6.93
2019-04-11T18:36:10.231Z,6.90
2019-04-11T18:38:40.295Z,7.80
2019-04-11T18:41:09.948Z,7.20
2019-04-11T18:43:39.763Z,6.80
2019-04-11T18:46:10.264Z,6.90
2019-04-11T18:48:39.996Z,7.20
2019-04-11T18:51:10.711Z,6.57
2019-04-11T18:53:40.498Z,7.30
2019-04-11T18:56:10.119Z,7.00
2019-04-11T18:58:40.364Z,8.33
2019-04-11T19:01:10.395Z,7.30
2019-04-11T19:03:41.364Z,6.57
2019-04-11T19:06:13.134Z,7.80
2019-04-11T19:08:44.331Z,7.07
2019-04-11T19:11:15.736Z,7.30
2019-04-11T19:13:47.040Z,7.20
2019-04-11T19:16:17.288Z,7.57
2019-04-11T19:18:47.623Z,6.70
2019-04-11T19:21:21.076Z,7.63
2019-04-11T19:23:49.967Z,7.83
2019-04-11T19:26:22.744Z,7.70
2019-04-11T19:28:54.964Z,8.13
2019-04-11T19:31:27.186Z,7.67
2019-04-11T19:33:54.712Z,7.77
2019-04-11T19:36:24.438Z,8.60
2019-04-11T19:38:54.107Z,9.37
2019-04-11T19:41:23.684Z,10.83
2019-04-11T19:43:53.978Z,12.37
2019-04-11T19:46:24.335Z,10.30
2019-04-11T19:48:57.075Z,9.23
2019-04-11T19:51:28.516Z,9.57
2019-04-11T19:53:57.979Z,7.90
2019-04-11T19:56:35.863Z,9.10
2019-04-11T19:59:06.207Z,8.47
2019-04-11T20:01:36.564Z,9.00
2019-04-11T20:04:06.935Z,9.47
2019-04-11T20:06:37.266Z,11.47
2019-04-11T20:09:07.687Z,12.60
2019-04-11T20:11:37.308Z,11.70
2019-04-11T20:14:07.962Z,11.93
2019-04-11T20:16:42.060Z,10.87
2019-04-11T20:19:09.692Z,10.60
2019-04-11T20:21:39.296Z,11.60
2019-04-11T20:24:09.589Z,11.07
2019-04-11T20:26:39.949Z,12.18
2019-04-11T20:29:09.663Z,13.57
2019-04-11T20:31:39.300Z,17.60
2019-04-11T20:34:09.664Z,24.10
2019-04-11T20:36:41.229Z,24.83
2019-04-11T20:39:14.948Z,27.17
2019-04-11T20:41:43.541Z,26.53
2019-04-11T20:44:13.794Z,27.00
2019-04-11T20:46:44.192Z,26.50
2019-04-11T20:49:14.644Z,26.80
2019-04-11T20:51:44.335Z,24.63
2019-04-11T20:54:13.952Z,24.10
2019-04-11T20:56:44.228Z,22.70
2019-04-11T20:59:14.710Z,21.40
2019-04-11T21:01:44.411Z,21.13
2019-04-11T21:04:14.682Z,20.07
2019-04-11T21:06:45.011Z,19.17
2019-04-11T21:09:14.854Z,19.17
2019-04-11T21:11:44.463Z,19.20
2019-04-11T21:14:14.726Z,17.63
2019-04-11T21:16:45.063Z,17.63
2019-04-11T21:19:15.387Z,18.17
2019-04-11T21:21:45.084Z,15.97
2019-04-11T21:24:15.331Z,16.33
2019-04-11T21:26:45.666Z,13.40
2019-04-11T21:29:16.017Z,12.80
2019-04-11T21:31:45.768Z,11.70
2019-04-11T21:34:16.050Z,10.90
2019-04-11T21:36:46.639Z,10.33
2019-04-11T21:39:16.994Z,9.10
2019-04-11T21:41:47.359Z,10.27
2019-04-11T21:44:17.695Z,9.40
2019-04-11T21:46:49.340Z,9.87
2019-04-11T21:49:19.953Z,10.97
2019-04-11T21:51:49.656Z,12.77
2019-04-11T21:54:19.911Z,13.10
2019-04-11T21:56:50.428Z,14.10
2019-04-11T21:59:21.173Z,14.07
2019-04-11T22:01:53.777Z,12.53
2019-04-11T22:04:22.170Z,13.33
2019-04-11T22:06:52.424Z,12.60
2019-04-11T22:09:22.801Z,11.43
2019-04-11T22:11:53.135Z,12.47
2019-04-11T22:14:22.933Z,12.43
2019-04-11T22:16:54.934Z,13.20
2019-04-11T22:19:24.423Z,13.03
2019-04-11T22:21:54.764Z,13.37
2019-04-11T22:24:25.131Z,12.07
2019-04-11T22:26:55.500Z,11.37
2019-04-11T22:29:25.848Z,10.28
2019-04-11T22:31:56.574Z,10.63
2019-04-11T22:34:46.938Z,10.58
2019-04-11T22:37:17.283Z,10.20
2019-04-11T22:39:47.687Z,10.37
2019-04-11T22:42:18.045Z,9.87
2019-04-11T22:44:48.388Z,8.87
2019-04-11T22:47:19.560Z,9.00
2019-04-11T22:49:49.912Z,9.10
2019-04-11T22:52:20.256Z,10.43
2019-04-11T22:54:50.701Z,9.37
2019-04-11T22:57:20.357Z,9.37
2019-04-11T22:59:50.617Z,9.07
2019-04-11T23:02:39.864Z,8.47
2019-04-11T23:05:10.250Z,8.23
2019-04-11T23:07:40.580Z,7.53
2019-04-11T23:10:11.036Z,7.20
2019-04-11T23:12:42.912Z,8.57
2019-04-11T23:15:15.129Z,7.30
2019-04-11T23:17:45.416Z,7.70
2019-04-11T23:20:15.099Z,8.00
2019-04-11T23:22:45.348Z,7.47
2019-04-11T23:25:15.088Z,7.37
2019-04-11T23:27:45.330Z,7.67
2019-04-11T23:30:18.374Z,7.60
2019-04-11T23:32:50.861Z,7.60
2019-04-11T23:35:21.118Z,7.50
2019-04-11T23:37:52.223Z,7.87
2019-04-11T23:40:22.870Z,7.50
2019-04-11T23:42:53.203Z,7.43
2019-04-11T23:45:25.239Z,8.20
2019-04-11T23:47:55.491Z,7.23
2019-04-11T23:50:25.955Z,7.80
2019-04-11T23:52:57.844Z,7.57
2019-04-11T23:55:30.818Z,6.50
2019-04-11T23:58:01.777Z,6.97
